Dracena, Brazil
Current Conditions -  °F | °C
As of 1:00 PM on Thursday 23 Oct 2014 (Local Time) from SBCG Reporting Station
Scattered Clouds Scattered Clouds  
Wind Chill: 88°   Ceiling: Unl
Heat Index: 90°   Visibility: 6mi
Dew Point: 66°   Wind: 9mph
Humidity: 49%   Direction: 340°NNW
Pressure: 29.97"   Gusts: NA
Location:  22.23°S, 54.82°W
Report Text: SBCG 231600Z 34008KT 9999 SCT045 SCT100 31/19 Q1015
Loading
Personal Weather Stations






























Interactive Weather Map
Tropical Storm Tracking
New forecast layout! Learn more

10-Day Weather Forecast

Advertisements
Track Severe Weather on mobile